Latest Weather Observations for Trepell

IDQ60801

Issued at 7:12 am EST Tuesday 25 September 2018 (issued every 10 minutes, with the page automatically refreshed every 10 minutes)

About weather observations | Map of weather stations | Latest weather observations for QLD | Other Formats
Station Details ID: 037036 Name: TREPELL AIRPORT Lat: -21.84 Lon: 140.89 Height: 266.2 m
Data from the previous 72 hours. | See also: Recent months at Trepell
Date/Time
EST
Temp
°C
App
Temp
°C
Dew
Point
°C
Rel
Hum
%
Delta-T
°C
Wind Press
QNH
hPa
Press
MSL
hPa
Rain since
9am
mm
Dir  Spd
km/h
Gust
km/h
Spd
kts
Gust
kts
25/07:00am 16.1 11.3 -6.2 21 8.4 SW 11 13 6 7 1018.4 1017.2 0.0
25/06:30am 14.5 9.2 -6.9 22 7.8 SW 13 15 7 8 1018.0 1016.8 0.0
25/06:00am 15.0 9.7 -7.1 21 8.1 SW 13 13 7 7 1017.8 1016.6 0.0
25/05:30am 15.8 10.5 -7.1 20 8.5 SW 13 15 7 8 1017.4 1016.2 0.0
25/05:00am 16.5 11.2 -7.2 19 8.8 SSW 13 15 7 8 1017.1 1015.9 0.0
25/04:30am 17.2 11.6 -6.6 19 9.1 SSW 15 19 8 10 1016.9 1015.7 0.0
25/04:00am 18.8 13.6 -6.0 18 9.7 SSE 13 17 7 9 1016.9 1015.7 0.0
25/03:30am 17.4 13.3 -7.1 18 9.3 SW 7 9 4 5 1016.9 1015.7 0.0
25/03:00am 17.9 13.0 -7.5 17 9.5 S 11 17 6 9 1016.9 1015.7 0.0
25/02:30am 16.9 12.0 -6.8 19 9.0 S 11 13 6 7 1017.0 1015.8 0.0
25/02:00am 17.1 12.2 -6.7 19 9.0 SSW 11 11 6 6 1017.2 1016.0 0.0
25/01:30am 16.9 12.0 -6.8 19 9.0 SSW 11 13 6 7 1017.4 1016.2 0.0
25/01:00am 18.8 13.6 -6.0 18 9.7 SSW 13 17 7 9 1017.5 1016.3 0.0
25/12:30am 18.4 13.6 -5.6 19 9.5 SSW 11 13 6 7 1017.5 1016.3 0.0
25/12:00am 19.3 14.6 -4.9 19 9.7 SSW 11 13 6 7 1017.6 1016.4 0.0
 
Date/Time
EST
Temp
°C
App
Temp
°C
Dew
Point
°C
Rel
Hum
%
Delta-T
°C
Wind Press
QNH
hPa
Press
MSL
hPa
Rain since
9am
mm
Dir  Spd
km/h
Gust
km/h
Spd
kts
Gust
kts
24/11:30pm 20.0 15.0 -4.3 19 10.0 SSW 13 17 7 9 1017.6 1016.4 0.0
24/11:00pm 20.8 16.5 -4.4 18 10.4 SSW 9 11 5 6 1017.5 1016.3 0.0
24/10:30pm 21.2 16.1 -5.6 16 10.9 SSW 13 19 7 10 1017.5 1016.3 0.0
24/10:00pm 23.5 18.5 -1.4 19 11.2 SSE 15 17 8 9 1017.3 1016.1 0.0
24/09:30pm 24.7 19.3 -1.2 18 11.8 SSE 17 20 9 11 1017.1 1015.9 0.0
24/09:00pm 25.4 19.7 -0.6 18 12.0 SSE 19 22 10 12 1016.9 1015.7 0.0
24/08:30pm 25.0 20.0 -0.9 18 11.9 SSE 15 19 8 10 1016.7 1015.5 0.0
24/08:00pm 26.4 21.1 -0.6 17 12.6 SSE 17 20 9 11 1016.5 1015.3 0.0
24/07:30pm 27.1 21.9 0.0 17 12.8 SSE 17 20 9 11 1016.2 1015.0 0.0
24/07:00pm 28.1 22.8 -0.9 15 13.6 SSE 17 19 9 10 1015.6 1014.5 0.0
24/06:30pm 29.3 24.2 -1.9 13 14.5 SSE 15 20 8 11 1015.4 1014.2 0.0
24/06:00pm 30.6 24.9 -0.9 13 15.0 SE 19 28 10 15 1015.1 1013.9 0.0
24/05:30pm 31.1 25.8 -0.5 13 15.3 SSE 17 22 9 12 1014.9 1013.7 0.0
24/05:00pm 31.6 26.8 -0.1 13 15.5 SE 15 20 8 11 1014.8 1013.6 0.0
24/04:30pm 31.9 27.1 0.1 13 15.6 SSE 15 22 8 12 1014.7 1013.5 0.0
24/04:00pm 32.3 27.9 0.4 13 15.8 SSW 13 20 7 11 1014.8 1013.6 0.0
24/03:30pm 32.0 26.8 0.2 13 15.6 S 17 32 9 17 1015.2 1014.0 0.0
24/03:00pm 31.9 27.1 0.1 13 15.6 SE 15 26 8 14 1015.6 1014.5 0.0
24/02:30pm 32.3 28.7 0.4 13 15.8 SSE 9 19 5 10 1016.1 1014.9 0.0
24/02:00pm 31.5 27.8 -0.2 13 15.4 SSE 9 20 5 11 1016.6 1015.4 0.0
24/01:30pm 31.4 27.8 0.7 14 15.2 SSE 9 20 5 11 1017.2 1016.0 0.0
24/01:00pm 30.8 26.4 0.2 14 14.9 SSE 13 24 7 13 1017.8 1016.6 0.0
24/12:30pm 30.3 26.2 -0.1 14 14.7 SSE 11 20 6 11 1018.3 1017.1 0.0
24/12:00pm 31.0 26.8 1.4 15 14.7 SE 13 22 7 12 1018.9 1017.8 0.0
24/11:30am 29.6 26.2 2.0 17 13.8 NE 9 20 5 11 1019.5 1018.4 0.0
24/11:00am 29.1 25.7 1.6 17 13.5 E 9 17 5 9 1020.1 1018.9 0.0
24/10:30am 28.8 25.4 2.1 18 13.3 ENE 9 17 5 9 1020.5 1019.3 0.0
24/10:00am 27.4 24.0 1.8 19 12.5 SE 9 17 5 9 1020.7 1019.5 0.0
24/09:30am 25.6 22.1 1.0 20 11.7 ESE 9 11 5 6 1021.0 1019.8 0.0
24/09:00am 23.9 20.7 0.9 22 10.8 SE 7 11 4 6 1020.9 1019.7 0.0
24/08:30am 22.3 18.6 0.2 23 10.1 SSW 9 11 5 6 1020.7 1019.5 0.0
24/08:00am 20.4 16.7 -0.3 25 9.2 SW 9 11 5 6 1020.4 1019.2 0.0
24/07:30am 18.5 15.2 0.2 29 8.1 WSW 7 9 4 5 1020.1 1018.9 0.0
24/07:00am 16.0 12.3 -0.2 33 7.0 WSW 9 9 5 5 1019.6 1018.5 0.0
24/06:30am 14.5 11.0 -1.6 33 6.6 W 7 9 4 5 1019.2 1018.1 0.0
24/06:00am 14.3 10.0 -1.3 34 6.4 SW 11 13 6 7 1019.0 1017.9 0.0
24/05:30am 14.4 10.2 -1.2 34 6.5 SW 11 13 6 7 1018.5 1017.3 0.0
24/05:00am 14.6 10.7 -1.5 33 6.6 SW 9 11 5 6 1018.2 1017.0 0.0
24/04:30am 16.3 13.1 -0.4 32 7.2 NW 6 7 3 4 1017.9 1016.7 0.0
24/04:00am 16.1 12.8 -1.0 31 7.2 WNW 6 7 3 4 1017.9 1016.7 0.0
24/03:30am 18.0 15.0 0.6 31 7.8 NNW 6 6 3 3 1017.9 1016.7 0.0
24/03:00am 17.5 14.3 -0.2 30 7.7 NW 6 7 3 4 1017.9 1016.7 0.0
24/02:30am 17.4 14.2 -0.3 30 7.7 NW 6 7 3 4 1018.1 1016.9 0.0
24/02:00am 18.2 15.0 -0.6 28 8.2 SW 6 6 3 3 1018.4 1017.2 0.0
24/01:30am 17.5 13.6 -1.2 28 8.0 SW 9 9 5 5 1018.7 1017.5 0.0
24/01:00am 17.4 14.0 -0.8 29 7.8 WSW 7 13 4 7 1019.1 1018.0 0.0
24/12:30am 19.7 17.8 0.7 28 8.6 CALM 0 0 0 0 1019.0 1017.9 0.0
24/12:00am 19.6 17.7 0.6 28 8.6 CALM 0 0 0 0 1019.2 1018.1 0.0
 
Date/Time
EST
Temp
°C
App
Temp
°C
Dew
Point
°C
Rel
Hum
%
Delta-T
°C
Wind Press
QNH
hPa
Press
MSL
hPa
Rain since
9am
mm
Dir  Spd
km/h
Gust
km/h
Spd
kts
Gust
kts
23/11:30pm 21.0 19.1 0.8 26 9.3 CALM 0 0 0 0 1019.2 1018.1 0.0
23/11:00pm 21.9 19.0 1.6 26 9.5 SE 6 7 3 4 1019.4 1018.3 0.0
23/10:30pm 21.6 18.3 2.3 28 9.2 SE 9 13 5 7 1019.6 1018.5 0.0
23/10:00pm 24.1 20.0 2.3 24 10.5 SE 13 15 7 8 1019.4 1018.3 0.0
23/09:30pm 23.7 19.7 3.1 26 10.1 SE 13 15 7 8 1019.3 1018.2 0.0
23/09:00pm 25.0 20.7 3.0 24 10.8 SE 15 19 8 10 1019.2 1018.1 0.0
23/08:30pm 24.7 20.4 3.4 25 10.6 SSE 15 22 8 12 1018.9 1017.8 0.0
23/08:00pm 25.9 21.1 2.6 22 11.4 SE 17 19 9 10 1018.6 1017.4 0.0
23/07:30pm 26.4 21.8 1.7 20 12.0 SE 15 17 8 9 1018.2 1017.0 0.0
23/07:00pm 27.7 22.4 2.0 19 12.6 SE 19 22 10 12 1017.9 1016.7 0.0
23/06:30pm 28.7 22.9 2.1 18 13.2 SE 22 30 12 16 1017.7 1016.5 0.0
23/06:00pm 29.5 23.9 1.1 16 13.9 ESE 20 28 11 15 1017.4 1016.2 0.0
23/05:30pm 30.0 23.9 0.6 15 14.4 SE 22 28 12 15 1017.3 1016.1 0.0
23/05:00pm 30.7 25.1 0.2 14 14.8 SE 19 33 10 18 1017.2 1016.0 0.0
23/04:30pm 31.2 25.7 0.6 14 15.1 SE 19 30 10 16 1017.2 1016.0 0.0
23/04:00pm 31.9 26.4 2.1 15 15.1 SE 20 30 11 16 1017.3 1016.1 0.0
23/03:30pm 31.5 26.8 0.8 14 15.2 SE 15 30 8 16 1017.6 1016.4 0.0
23/03:00pm 30.9 26.1 0.3 14 14.9 SSE 15 20 8 11 1018.0 1016.8 0.0
23/02:30pm 30.7 25.9 0.2 14 14.9 ESE 15 26 8 14 1018.4 1017.2 0.0
23/02:00pm 31.6 26.1 1.8 15 15.0 ENE 20 32 11 17 1018.7 1017.5 0.0
23/01:30pm 30.1 26.0 2.4 17 14.0 ESE 13 28 7 15 1019.2 1018.1 0.0
23/01:00pm 29.8 24.5 2.9 18 13.6 E 20 35 11 19 1019.9 1018.7 0.0
23/12:30pm 29.5 24.3 3.5 19 13.3 ENE 20 32 11 17 1020.6 1019.4 0.0
23/12:00pm 29.0 23.9 3.1 19 13.1 E 19 30 10 16 1021.0 1019.8 0.0
23/11:30am 30.0 25.1 5.3 21 13.1 ENE 20 33 11 18 1021.4 1020.2 0.0
23/11:00am 28.6 22.8 4.2 21 12.5 E 24 32 13 17 1022.0 1020.8 0.0
23/10:30am 28.1 22.5 3.7 21 12.4 E 22 30 12 16 1022.2 1021.1 0.0
23/10:00am 27.6 20.8 3.3 21 12.2 E 28 33 15 18 1022.3 1021.2 0.0
23/09:30am 26.5 20.6 3.7 23 11.5 ENE 24 32 13 17 1022.3 1021.2 0.0
23/09:00am 25.1 19.5 3.7 25 10.6 E 22 30 12 16 1022.2 1021.1 0.0
23/08:30am 23.7 18.3 2.5 25 10.3 E 20 28 11 15 1022.2 1021.1 0.0
23/08:00am 20.8 16.8 0.6 26 9.2 E 11 15 6 8 1022.0 1020.8 0.0
23/07:30am 18.6 14.5 -0.2 28 8.3 ESE 11 13 6 7 1021.7 1020.5 0.0
23/07:00am 16.7 13.0 -0.1 32 7.3 ESE 9 11 5 6 1021.4 1020.2 0.0
23/06:30am 15.4 11.5 -1.2 32 7.0 E 9 11 5 6 1021.2 1020.0 0.0
23/06:00am 15.8 11.6 -0.8 32 7.0 ESE 11 13 6 7 1020.9 1019.7 0.0
23/05:30am 17.1 12.5 -1.1 29 7.8 ESE 13 17 7 9 1020.8 1019.6 0.0
23/05:00am 17.7 12.8 -0.5 29 7.9 SE 15 19 8 10 1020.7 1019.5 0.0
23/04:30am 18.7 13.1 -0.2 28 8.3 SE 19 22 10 12 1020.5 1019.3 0.0
23/04:00am 18.5 13.4 0.6 30 8.0 SE 17 22 9 12 1020.3 1019.1 0.0
23/03:30am 17.5 12.8 1.1 33 7.4 SSE 15 19 8 10 1020.2 1019.0 0.0
23/03:00am 16.8 12.2 -1.3 29 7.6 S 13 15 7 8 1020.4 1019.2 0.0
23/02:30am 16.1 12.7 -2.4 28 7.6 S 6 9 3 5 1020.5 1019.3 0.0
23/02:00am 17.3 13.7 -1.9 27 8.0 E 7 9 4 5 1020.6 1019.4 0.0
23/01:30am 17.7 14.2 -1.5 27 8.2 ESE 7 9 4 5 1020.7 1019.5 0.0
23/01:00am 18.1 13.4 -1.7 26 8.4 ESE 13 15 7 8 1020.9 1019.7 0.0
23/12:30am 17.9 13.4 -3.5 23 8.8 E 11 13 6 7 1021.2 1020.0 0.0
23/12:00am 18.5 14.0 -3.6 22 9.0 ESE 11 15 6 8 1021.1 1019.9 0.0
 
Date/Time
EST
Temp
°C
App
Temp
°C
Dew
Point
°C
Rel
Hum
%
Delta-T
°C
Wind Press
QNH
hPa
Press
MSL
hPa
Rain since
9am
mm
Dir  Spd
km/h
Gust
km/h
Spd
kts
Gust
kts
22/11:30pm 18.9 14.3 -4.5 20 9.5 E 11 13 6 7 1021.0 1019.8 0.0
22/11:00pm 19.5 14.8 -5.4 18 9.9 E 11 13 6 7 1021.0 1019.8 0.0
22/10:30pm 20.4 15.2 -6.2 16 10.6 ESE 13 15 7 8 1021.0 1019.8 0.0
22/10:00pm 22.5 17.1 -4.5 16 11.3 ESE 15 17 8 9 1021.0 1019.8 0.0
22/09:30pm 23.4 17.9 -5.6 14 12.0 SE 15 19 8 10 1020.9 1019.7 0.0
22/09:00pm 24.2 18.4 -4.9 14 12.3 SE 17 19 9 10 1020.6 1019.4 0.0
22/08:30pm 24.9 19.0 -5.4 13 12.8 SE 17 20 9 11 1020.2 1019.0 0.0
22/08:00pm 25.9 20.1 -4.6 13 13.1 SE 17 20 9 11 1019.9 1018.7 0.0
22/07:30pm 26.7 20.5 -5.0 12 13.7 SE 19 22 10 12 1019.4 1018.3 0.0
22/07:00pm 27.5 21.3 -4.4 12 14.0 SE 19 24 10 13 1019.0 1017.9 0.0
22/06:30pm 28.3 22.2 -3.8 12 14.3 SSE 19 24 10 13 1018.5 1017.3 0.0
22/06:00pm 29.6 23.7 -5.2 10 15.3 SE 17 22 9 12 1018.4 1017.2 0.0
22/05:30pm 30.6 24.3 -5.8 9 16.0 SSE 19 28 10 15 1018.1 1016.9 0.0
22/05:00pm 31.1 24.7 -7.0 8 16.4 SE 19 26 10 14 1017.8 1016.6 0.0
22/04:30pm 31.6 24.3 -6.6 8 16.7 SE 24 33 13 18 1017.8 1016.6 0.0
22/04:00pm 31.7 26.5 -6.6 8 16.7 ESE 13 24 7 13 1017.8 1016.6 0.0
22/03:30pm 32.2 27.0 -6.2 8 17.0 SSE 13 28 7 15 1018.0 1016.8 0.0
22/03:00pm 31.6 26.0 -6.6 8 16.7 SSE 15 24 8 13 1018.3 1017.1 0.0
22/02:30pm 31.2 26.6 -4.0 10 16.0 E 11 24 6 13 1018.8 1017.6 0.0
22/02:00pm 31.6 26.3 -3.7 10 16.2 SE 15 24 8 13 1019.1 1018.0 0.0
22/01:30pm 30.6 24.4 -4.4 10 15.8 E 19 32 10 17 1019.6 1018.5 0.0
22/01:00pm 31.1 26.1 -4.1 10 15.9 ENE 13 26 7 14 1020.3 1019.1 0.0
22/12:30pm 30.2 25.1 -4.8 10 15.6 E 13 28 7 15 1020.8 1019.6 0.0
22/12:00pm 30.7 25.3 -4.4 10 15.8 ESE 15 24 8 13 1021.3 1020.1 0.0
22/11:30am 29.6 22.8 -5.2 10 15.3 E 22 30 12 16 1021.9 1020.7 0.0
22/11:00am 29.6 23.3 -3.9 11 15.0 E 20 30 11 16 1022.2 1021.1 0.0
22/10:30am 28.1 22.5 -0.1 16 13.4 E 19 28 10 15 1022.4 1021.3 0.0
22/10:00am 26.3 20.4 -5.3 12 13.4 E 17 28 9 15 1022.7 1021.6 0.0
22/09:30am 25.1 19.4 -7.4 11 13.2 ESE 15 20 8 11 1022.7 1021.6 0.0
22/09:00am 22.5 16.9 -10.6 10 12.3 ESE 13 19 7 10 1022.5 1021.4 0.0
22/08:30am 19.4 14.2 -10.7 12 10.8 SE 11 15 6 8 1022.2 1021.1 0.0
22/08:00am 17.2 12.8 -12.4 12 9.9 S 6 7 3 4 1022.4 1021.3 0.0
22/07:32am 15.0 10.1 -12.2 14 8.9 SW 9 9 5 5 1022.1 1020.9 0.0
22/07:30am 15.0 10.1 -12.2 14 8.9 WSW 9 9 5 5 1022.1 1020.9 0.0
22/07:18am 14.8 10.3 -12.4 14 8.9 WSW 7 9 4 5 1022.0 1020.8 0.0

Other Formats:

Comma delimited format used in spreadsheet applications
http://www.bom.gov.au/fwo/IDQ60801/IDQ60801.94338.axf

JavaScript Object Notation format (JSON) in row-major order
http://www.bom.gov.au/fwo/IDQ60801/IDQ60801.94338.json